sensor_id;sensor_type;location;lat;lon;timestamp;pressure;altitude;pressure_sealevel;temperature;humidity
71165;BME280;58859;55.132;-1.586;2023-07-31T00:00:30;99879.34;;;21.42;100.00
71165;BME280;58859;55.132;-1.586;2023-07-31T00:02:56;99879.16;;;19.35;100.00
71165;BME280;58859;55.132;-1.586;2023-07-31T00:05:21;99876.75;;;18.85;100.00
71165;BME280;58859;55.132;-1.586;2023-07-31T00:07:47;99874.81;;;19.11;100.00
71165;BME280;58859;55.132;-1.586;2023-07-31T00:10:12;99862.22;;;20.53;100.00
71165;BME280;58859;55.132;-1.586;2023-07-31T00:12:39;99869.56;;;19.93;100.00
71165;BME280;58859;55.132;-1.586;2023-07-31T00:15:06;99859.88;;;19.64;100.00
71165;BME280;58859;55.132;-1.586;2023-07-31T00:17:32;99868.09;;;20.09;100.00
71165;BME280;58859;55.132;-1.586;2023-07-31T00:19:57;99862.69;;;20.39;100.00
71165;BME280;58859;55.132;-1.586;2023-07-31T00:22:22;99856.38;;;20.63;100.00
71165;BME280;58859;55.132;-1.586;2023-07-31T00:24:48;99851.75;;;21.10;100.00
71165;BME280;58859;55.132;-1.586;2023-07-31T00:27:13;99847.75;;;20.96;100.00
71165;BME280;58859;55.132;-1.586;2023-07-31T00:29:39;99842.63;;;19.50;100.00
71165;BME280;58859;55.132;-1.586;2023-07-31T00:32:04;99843.47;;;18.55;100.00
71165;BME280;58859;55.132;-1.586;2023-07-31T00:34:30;99834.53;;;18.56;100.00
71165;BME280;58859;55.132;-1.586;2023-07-31T00:36:55;99825.25;;;20.19;100.00
71165;BME280;58859;55.132;-1.586;2023-07-31T00:39:21;99829.03;;;20.57;100.00
71165;BME280;58859;55.132;-1.586;2023-07-31T00:41:46;99823.06;;;20.39;100.00
71165;BME280;58859;55.132;-1.586;2023-07-31T00:44:12;99822.03;;;20.17;100.00
71165;BME280;58859;55.132;-1.586;2023-07-31T00:46:37;99813.78;;;20.36;100.00
71165;BME280;58859;55.132;-1.586;2023-07-31T00:49:03;99807.06;;;20.69;100.00
71165;BME280;58859;55.132;-1.586;2023-07-31T00:51:29;99798.75;;;20.77;100.00
71165;BME280;58859;55.132;-1.586;2023-07-31T00:53:55;99774.47;;;19.35;100.00
71165;BME280;58859;55.132;-1.586;2023-07-31T00:56:21;99779.03;;;18.87;100.00
71165;BME280;58859;55.132;-1.586;2023-07-31T00:58:47;99780.03;;;19.16;100.00
71165;BME280;58859;55.132;-1.586;2023-07-31T01:01:12;99786.91;;;20.04;100.00
71165;BME280;58859;55.132;-1.586;2023-07-31T01:03:38;99783.38;;;18.45;100.00
71165;BME280;58859;55.132;-1.586;2023-07-31T01:09:28;99792.41;;;18.56;100.00
71165;BME280;58859;55.132;-1.586;2023-07-31T01:12:01;99785.28;;;18.74;100.00
71165;BME280;58859;55.132;-1.586;2023-07-31T01:14:26;99776.94;;;20.06;100.00
71165;BME280;58859;55.132;-1.586;2023-07-31T01:16:52;99780.47;;;20.35;100.00
71165;BME280;58859;55.132;-1.586;2023-07-31T01:19:21;99771.16;;;18.69;100.00
71165;BME280;58859;55.132;-1.586;2023-07-31T01:22:06;99766.50;;;17.17;100.00
71165;BME280;58859;55.132;-1.586;2023-07-31T01:27:24;99758.00;;;17.47;100.00
71165;BME280;58859;55.132;-1.586;2023-07-31T01:32:19;99753.50;;;18.99;100.00
71165;BME280;58859;55.132;-1.586;2023-07-31T01:34:45;99755.31;;;18.87;100.00
71165;BME280;58859;55.132;-1.586;2023-07-31T01:37:11;99754.56;;;17.46;100.00
71165;BME280;58859;55.132;-1.586;2023-07-31T01:39:37;99758.22;;;18.67;100.00
71165;BME280;58859;55.132;-1.586;2023-07-31T01:42:02;99762.75;;;17.88;100.00
71165;BME280;58859;55.132;-1.586;2023-07-31T01:44:28;99753.28;;;17.80;100.00
71165;BME280;58859;55.132;-1.586;2023-07-31T01:46:53;99754.47;;;17.84;100.00
71165;BME280;58859;55.132;-1.586;2023-07-31T01:49:18;99752.91;;;18.56;100.00
71165;BME280;58859;55.132;-1.586;2023-07-31T01:51:44;99742.28;;;17.40;100.00
71165;BME280;58859;55.132;-1.586;2023-07-31T01:54:09;99737.78;;;17.72;100.00
71165;BME280;58859;55.132;-1.586;2023-07-31T01:56:35;99725.03;;;18.30;100.00
71165;BME280;58859;55.132;-1.586;2023-07-31T01:59:00;99722.59;;;18.47;100.00
71165;BME280;58859;55.132;-1.586;2023-07-31T02:01:25;99713.13;;;18.75;100.00
71165;BME280;58859;55.132;-1.586;2023-07-31T02:03:51;99706.31;;;18.20;100.00
71165;BME280;58859;55.132;-1.586;2023-07-31T02:06:16;99677.25;;;17.78;100.00
71165;BME280;58859;55.132;-1.586;2023-07-31T02:08:42;99709.31;;;18.71;100.00
71165;BME280;58859;55.132;-1.586;2023-07-31T02:11:07;99695.56;;;17.67;100.00
71165;BME280;58859;55.132;-1.586;2023-07-31T02:13:32;99694.84;;;18.62;100.00
71165;BME280;58859;55.132;-1.586;2023-07-31T02:15:58;99694.63;;;19.05;100.00
71165;BME280;58859;55.132;-1.586;2023-07-31T02:18:23;99690.81;;;18.89;100.00
71165;BME280;58859;55.132;-1.586;2023-07-31T02:20:50;99695.06;;;19.55;100.00
71165;BME280;58859;55.132;-1.586;2023-07-31T02:23:16;99696.00;;;19.08;100.00
71165;BME280;58859;55.132;-1.586;2023-07-31T02:25:42;99692.06;;;18.75;100.00
71165;BME280;58859;55.132;-1.586;2023-07-31T02:28:08;99693.53;;;19.94;100.00
71165;BME280;58859;55.132;-1.586;2023-07-31T02:30:33;99696.13;;;20.05;100.00
71165;BME280;58859;55.132;-1.586;2023-07-31T02:32:59;99685.38;;;19.84;100.00
71165;BME280;58859;55.132;-1.586;2023-07-31T02:35:24;99678.75;;;18.82;100.00
71165;BME280;58859;55.132;-1.586;2023-07-31T02:37:49;99683.06;;;19.06;100.00
71165;BME280;58859;55.132;-1.586;2023-07-31T02:40:15;99672.53;;;19.06;100.00
71165;BME280;58859;55.132;-1.586;2023-07-31T02:42:40;99678.59;;;19.99;100.00
71165;BME280;58859;55.132;-1.586;2023-07-31T02:45:06;99656.59;;;19.82;100.00
71165;BME280;58859;55.132;-1.586;2023-07-31T02:47:32;99647.09;;;18.11;100.00
71165;BME280;58859;55.132;-1.586;2023-07-31T02:49:57;99658.94;;;17.65;100.00
71165;BME280;58859;55.132;-1.586;2023-07-31T02:52:22;99669.19;;;18.99;100.00
71165;BME280;58859;55.132;-1.586;2023-07-31T02:54:48;99655.56;;;19.37;100.00
71165;BME280;58859;55.132;-1.586;2023-07-31T02:57:13;99661.41;;;19.27;100.00
71165;BME280;58859;55.132;-1.586;2023-07-31T02:59:38;99655.41;;;18.26;100.00
71165;BME280;58859;55.132;-1.586;2023-07-31T03:02:04;99658.41;;;18.89;100.00
71165;BME280;58859;55.132;-1.586;2023-07-31T03:04:29;99649.00;;;18.93;100.00
71165;BME280;58859;55.132;-1.586;2023-07-31T03:06:55;99646.19;;;17.87;100.00
71165;BME280;58859;55.132;-1.586;2023-07-31T03:09:20;99640.81;;;17.14;100.00
71165;BME280;58859;55.132;-1.586;2023-07-31T03:11:45;99629.41;;;17.45;100.00
71165;BME280;58859;55.132;-1.586;2023-07-31T03:14:11;99640.34;;;18.33;100.00
71165;BME280;58859;55.132;-1.586;2023-07-31T03:16:36;99639.06;;;18.95;100.00
71165;BME280;58859;55.132;-1.586;2023-07-31T03:19:02;99635.78;;;19.46;100.00
71165;BME280;58859;55.132;-1.586;2023-07-31T03:21:27;99641.75;;;19.93;100.00
71165;BME280;58859;55.132;-1.586;2023-07-31T03:23:53;99630.75;;;18.68;100.00
71165;BME280;58859;55.132;-1.586;2023-07-31T03:26:18;99635.47;;;17.46;100.00
71165;BME280;58859;55.132;-1.586;2023-07-31T03:28:44;99634.06;;;17.00;100.00
71165;BME280;58859;55.132;-1.586;2023-07-31T03:31:09;99629.81;;;17.24;100.00
71165;BME280;58859;55.132;-1.586;2023-07-31T03:33:34;99634.59;;;17.34;100.00
71165;BME280;58859;55.132;-1.586;2023-07-31T03:36:00;99628.28;;;17.77;100.00
71165;BME280;58859;55.132;-1.586;2023-07-31T03:38:25;99632.88;;;19.36;100.00
71165;BME280;58859;55.132;-1.586;2023-07-31T03:40:51;99638.88;;;18.07;100.00
71165;BME280;58859;55.132;-1.586;2023-07-31T03:43:16;99630.81;;;18.02;100.00
71165;BME280;58859;55.132;-1.586;2023-07-31T03:45:42;99629.94;;;19.95;100.00
71165;BME280;58859;55.132;-1.586;2023-07-31T03:48:07;99631.31;;;18.11;100.00
71165;BME280;58859;55.132;-1.586;2023-07-31T03:50:33;99636.94;;;18.44;100.00
71165;BME280;58859;55.132;-1.586;2023-07-31T03:52:58;99644.13;;;18.55;100.00
71165;BME280;58859;55.132;-1.586;2023-07-31T03:55:24;99638.50;;;18.33;100.00
71165;BME280;58859;55.132;-1.586;2023-07-31T03:57:49;99633.25;;;17.67;100.00
71165;BME280;58859;55.132;-1.586;2023-07-31T04:00:14;99627.09;;;17.92;100.00
71165;BME280;58859;55.132;-1.586;2023-07-31T04:02:40;99629.75;;;19.16;100.00
71165;BME280;58859;55.132;-1.586;2023-07-31T04:05:06;99629.94;;;19.95;100.00
71165;BME280;58859;55.132;-1.586;2023-07-31T04:07:31;99633.09;;;19.00;100.00
71165;BME280;58859;55.132;-1.586;2023-07-31T04:09:57;99622.75;;;18.75;100.00
71165;BME280;58859;55.132;-1.586;2023-07-31T04:12:22;99627.53;;;18.66;100.00
71165;BME280;58859;55.132;-1.586;2023-07-31T04:14:48;99627.94;;;19.63;100.00
71165;BME280;58859;55.132;-1.586;2023-07-31T04:17:13;99623.28;;;20.21;100.00
71165;BME280;58859;55.132;-1.586;2023-07-31T04:19:38;99622.44;;;19.64;100.00
71165;BME280;58859;55.132;-1.586;2023-07-31T04:22:04;99628.59;;;18.88;100.00
71165;BME280;58859;55.132;-1.586;2023-07-31T04:24:29;99623.31;;;19.81;100.00
71165;BME280;58859;55.132;-1.586;2023-07-31T04:26:55;99626.53;;;20.23;100.00
71165;BME280;58859;55.132;-1.586;2023-07-31T04:29:21;99627.41;;;20.00;100.00
71165;BME280;58859;55.132;-1.586;2023-07-31T04:31:48;99617.75;;;19.55;100.00
71165;BME280;58859;55.132;-1.586;2023-07-31T04:34:13;99612.00;;;19.00;100.00
71165;BME280;58859;55.132;-1.586;2023-07-31T04:36:39;99604.69;;;18.90;100.00
71165;BME280;58859;55.132;-1.586;2023-07-31T04:39:04;99611.31;;;20.02;100.00
71165;BME280;58859;55.132;-1.586;2023-07-31T04:41:30;99600.31;;;20.33;100.00
71165;BME280;58859;55.132;-1.586;2023-07-31T04:43:55;99603.19;;;19.64;100.00
71165;BME280;58859;55.132;-1.586;2023-07-31T04:46:20;99601.59;;;19.51;100.00
71165;BME280;58859;55.132;-1.586;2023-07-31T04:48:46;99589.69;;;20.17;100.00
71165;BME280;58859;55.132;-1.586;2023-07-31T04:51:11;99591.53;;;20.16;100.00
71165;BME280;58859;55.132;-1.586;2023-07-31T04:53:36;99589.31;;;19.33;100.00
71165;BME280;58859;55.132;-1.586;2023-07-31T04:56:02;99586.09;;;18.85;100.00
71165;BME280;58859;55.132;-1.586;2023-07-31T04:58:27;99576.72;;;19.35;100.00
71165;BME280;58859;55.132;-1.586;2023-07-31T05:00:53;99582.91;;;19.29;100.00
71165;BME280;58859;55.132;-1.586;2023-07-31T05:03:18;99584.56;;;19.70;100.00
71165;BME280;58859;55.132;-1.586;2023-07-31T05:05:43;99590.34;;;19.09;100.00
71165;BME280;58859;55.132;-1.586;2023-07-31T05:08:09;99591.84;;;19.40;100.00
71165;BME280;58859;55.132;-1.586;2023-07-31T05:10:34;99588.72;;;18.32;100.00
71165;BME280;58859;55.132;-1.586;2023-07-31T05:13:00;99588.09;;;19.76;100.00
71165;BME280;58859;55.132;-1.586;2023-07-31T05:15:25;99585.31;;;19.94;100.00
71165;BME280;58859;55.132;-1.586;2023-07-31T05:17:50;99581.63;;;19.95;100.00
71165;BME280;58859;55.132;-1.586;2023-07-31T05:20:16;99574.25;;;19.69;100.00
71165;BME280;58859;55.132;-1.586;2023-07-31T05:22:41;99568.97;;;19.69;100.00
71165;BME280;58859;55.132;-1.586;2023-07-31T05:25:07;99568.69;;;19.82;100.00
71165;BME280;58859;55.132;-1.586;2023-07-31T05:27:33;99567.91;;;19.18;100.00
71165;BME280;58859;55.132;-1.586;2023-07-31T05:29:58;99565.47;;;19.91;100.00
71165;BME280;58859;55.132;-1.586;2023-07-31T05:32:24;99563.84;;;19.50;100.00
71165;BME280;58859;55.132;-1.586;2023-07-31T05:34:52;99566.94;;;19.47;100.00
71165;BME280;58859;55.132;-1.586;2023-07-31T05:37:18;99567.31;;;18.93;100.00
71165;BME280;58859;55.132;-1.586;2023-07-31T05:39:44;99570.28;;;18.73;100.00
71165;BME280;58859;55.132;-1.586;2023-07-31T05:42:10;99558.78;;;19.61;100.00
71165;BME280;58859;55.132;-1.586;2023-07-31T05:44:35;99565.78;;;18.51;100.00
71165;BME280;58859;55.132;-1.586;2023-07-31T05:47:00;99559.78;;;18.44;100.00
71165;BME280;58859;55.132;-1.586;2023-07-31T05:49:26;99569.47;;;18.96;100.00
71165;BME280;58859;55.132;-1.586;2023-07-31T05:51:51;99561.34;;;18.21;100.00
71165;BME280;58859;55.132;-1.586;2023-07-31T05:54:17;99568.97;;;17.45;100.00
71165;BME280;58859;55.132;-1.586;2023-07-31T05:56:42;99567.25;;;18.47;100.00
71165;BME280;58859;55.132;-1.586;2023-07-31T05:59:09;99567.25;;;18.17;100.00
71165;BME280;58859;55.132;-1.586;2023-07-31T06:01:35;99573.59;;;18.57;100.00
71165;BME280;58859;55.132;-1.586;2023-07-31T06:04:00;99567.63;;;18.50;100.00
71165;BME280;58859;55.132;-1.586;2023-07-31T06:06:27;99555.72;;;18.18;100.00
71165;BME280;58859;55.132;-1.586;2023-07-31T06:08:52;99550.88;;;18.45;100.00
71165;BME280;58859;55.132;-1.586;2023-07-31T06:11:19;99543.25;;;18.25;100.00
71165;BME280;58859;55.132;-1.586;2023-07-31T06:13:45;99545.53;;;18.74;100.00
71165;BME280;58859;55.132;-1.586;2023-07-31T06:16:12;99546.00;;;19.06;100.00
71165;BME280;58859;55.132;-1.586;2023-07-31T06:18:37;99546.22;;;18.58;100.00
71165;BME280;58859;55.132;-1.586;2023-07-31T06:21:03;99545.00;;;18.96;100.00
71165;BME280;58859;55.132;-1.586;2023-07-31T06:23:28;99541.44;;;18.37;100.00
71165;BME280;58859;55.132;-1.586;2023-07-31T06:25:53;99547.25;;;17.50;100.00
71165;BME280;58859;55.132;-1.586;2023-07-31T06:28:19;99544.22;;;18.01;100.00
71165;BME280;58859;55.132;-1.586;2023-07-31T06:30:44;99527.31;;;17.78;100.00
71165;BME280;58859;55.132;-1.586;2023-07-31T06:33:10;99532.47;;;18.68;100.00
71165;BME280;58859;55.132;-1.586;2023-07-31T06:35:35;99536.06;;;18.32;100.00
71165;BME280;58859;55.132;-1.586;2023-07-31T06:38:00;99518.94;;;19.11;100.00
71165;BME280;58859;55.132;-1.586;2023-07-31T06:40:27;99505.16;;;19.43;100.00
71165;BME280;58859;55.132;-1.586;2023-07-31T06:42:53;99517.06;;;18.30;100.00
71165;BME280;58859;55.132;-1.586;2023-07-31T06:45:18;99499.03;;;19.03;100.00
71165;BME280;58859;55.132;-1.586;2023-07-31T06:47:43;99496.56;;;19.25;100.00
71165;BME280;58859;55.132;-1.586;2023-07-31T06:50:09;99497.53;;;19.87;100.00
71165;BME280;58859;55.132;-1.586;2023-07-31T06:52:34;99497.97;;;19.16;100.00
71165;BME280;58859;55.132;-1.586;2023-07-31T06:55:14;99489.53;;;19.54;100.00
71165;BME280;58859;55.132;-1.586;2023-07-31T06:57:41;99498.16;;;19.77;100.00
71165;BME280;58859;55.132;-1.586;2023-07-31T07:00:07;99514.66;;;19.33;100.00
71165;BME280;58859;55.132;-1.586;2023-07-31T07:02:33;99502.75;;;20.43;100.00
71165;BME280;58859;55.132;-1.586;2023-07-31T07:04:59;99499.56;;;19.96;100.00
71165;BME280;58859;55.132;-1.586;2023-07-31T07:07:24;99498.38;;;20.21;100.00
71165;BME280;58859;55.132;-1.586;2023-07-31T07:09:49;99497.28;;;19.72;100.00
71165;BME280;58859;55.132;-1.586;2023-07-31T07:12:15;99476.31;;;19.65;100.00
71165;BME280;58859;55.132;-1.586;2023-07-31T07:14:40;99503.75;;;18.66;100.00
71165;BME280;58859;55.132;-1.586;2023-07-31T07:17:06;99488.94;;;20.08;100.00
71165;BME280;58859;55.132;-1.586;2023-07-31T07:19:31;99481.09;;;19.40;100.00
71165;BME280;58859;55.132;-1.586;2023-07-31T07:21:56;99484.94;;;20.05;100.00
71165;BME280;58859;55.132;-1.586;2023-07-31T07:24:22;99490.63;;;19.69;100.00
71165;BME280;58859;55.132;-1.586;2023-07-31T07:26:47;99495.38;;;18.92;100.00
71165;BME280;58859;55.132;-1.586;2023-07-31T07:29:12;99491.25;;;18.97;100.00
71165;BME280;58859;55.132;-1.586;2023-07-31T07:31:38;99484.47;;;19.12;100.00
71165;BME280;58859;55.132;-1.586;2023-07-31T07:34:03;99482.97;;;19.56;100.00
71165;BME280;58859;55.132;-1.586;2023-07-31T07:36:29;99481.97;;;19.57;100.00
71165;BME280;58859;55.132;-1.586;2023-07-31T07:38:54;99492.06;;;19.48;100.00
71165;BME280;58859;55.132;-1.586;2023-07-31T07:41:20;99471.69;;;18.81;100.00
71165;BME280;58859;55.132;-1.586;2023-07-31T07:43:45;99482.78;;;18.83;100.00
71165;BME280;58859;55.132;-1.586;2023-07-31T07:46:11;99480.63;;;19.71;100.00
71165;BME280;58859;55.132;-1.586;2023-07-31T07:48:36;99486.13;;;19.98;100.00
71165;BME280;58859;55.132;-1.586;2023-07-31T07:51:02;99474.66;;;19.76;100.00
71165;BME280;58859;55.132;-1.586;2023-07-31T07:53:27;99472.63;;;19.26;100.00
71165;BME280;58859;55.132;-1.586;2023-07-31T07:55:53;99470.50;;;19.80;100.00
71165;BME280;58859;55.132;-1.586;2023-07-31T07:58:18;99463.19;;;19.30;100.00
71165;BME280;58859;55.132;-1.586;2023-07-31T08:00:49;99475.06;;;20.29;100.00
71165;BME280;58859;55.132;-1.586;2023-07-31T08:03:15;99476.13;;;19.55;100.00
71165;BME280;58859;55.132;-1.586;2023-07-31T08:05:42;99471.50;;;19.62;100.00
71165;BME280;58859;55.132;-1.586;2023-07-31T08:08:07;99448.22;;;19.59;100.00
71165;BME280;58859;55.132;-1.586;2023-07-31T08:10:33;99461.78;;;19.79;100.00
71165;BME280;58859;55.132;-1.586;2023-07-31T08:12:58;99462.47;;;20.20;100.00
71165;BME280;58859;55.132;-1.586;2023-07-31T08:15:24;99465.31;;;19.17;100.00
71165;BME280;58859;55.132;-1.586;2023-07-31T08:17:49;99467.53;;;19.76;100.00
71165;BME280;58859;55.132;-1.586;2023-07-31T08:20:14;99469.47;;;19.81;100.00
71165;BME280;58859;55.132;-1.586;2023-07-31T08:22:40;99460.16;;;20.23;100.00
71165;BME280;58859;55.132;-1.586;2023-07-31T08:25:06;99461.53;;;20.59;100.00
71165;BME280;58859;55.132;-1.586;2023-07-31T08:27:32;99453.81;;;19.34;100.00
71165;BME280;58859;55.132;-1.586;2023-07-31T08:29:57;99456.66;;;20.51;100.00
71165;BME280;58859;55.132;-1.586;2023-07-31T08:32:23;99456.19;;;20.37;100.00
71165;BME280;58859;55.132;-1.586;2023-07-31T08:34:48;99464.81;;;20.49;100.00
71165;BME280;58859;55.132;-1.586;2023-07-31T08:37:14;99461.66;;;19.86;100.00
71165;BME280;58859;55.132;-1.586;2023-07-31T08:39:39;99458.00;;;20.20;100.00
71165;BME280;58859;55.132;-1.586;2023-07-31T08:42:08;99447.25;;;20.98;100.00
71165;BME280;58859;55.132;-1.586;2023-07-31T08:44:34;99453.13;;;20.45;100.00
71165;BME280;58859;55.132;-1.586;2023-07-31T08:47:00;99457.38;;;20.30;100.00
71165;BME280;58859;55.132;-1.586;2023-07-31T08:49:27;99455.28;;;19.42;100.00
71165;BME280;58859;55.132;-1.586;2023-07-31T08:51:53;99444.47;;;20.50;100.00
71165;BME280;58859;55.132;-1.586;2023-07-31T08:54:20;99451.34;;;19.56;100.00
71165;BME280;58859;55.132;-1.586;2023-07-31T08:56:46;99449.97;;;19.54;100.00
71165;BME280;58859;55.132;-1.586;2023-07-31T08:59:13;99453.91;;;19.68;100.00
71165;BME280;58859;55.132;-1.586;2023-07-31T09:01:43;99446.63;;;20.20;100.00
71165;BME280;58859;55.132;-1.586;2023-07-31T09:04:12;99432.78;;;20.62;100.00
71165;BME280;58859;55.132;-1.586;2023-07-31T09:06:39;99410.72;;;20.95;100.00
71165;BME280;58859;55.132;-1.586;2023-07-31T09:09:06;99426.22;;;20.65;100.00
71165;BME280;58859;55.132;-1.586;2023-07-31T09:11:31;99422.22;;;20.84;100.00
71165;BME280;58859;55.132;-1.586;2023-07-31T09:13:57;99425.81;;;21.65;100.00
71165;BME280;58859;55.132;-1.586;2023-07-31T09:16:29;99425.78;;;20.95;100.00
71165;BME280;58859;55.132;-1.586;2023-07-31T09:18:57;99431.19;;;21.75;100.00
71165;BME280;58859;55.132;-1.586;2023-07-31T09:21:24;99420.88;;;21.47;100.00
71165;BME280;58859;55.132;-1.586;2023-07-31T09:23:51;99416.53;;;20.04;100.00
71165;BME280;58859;55.132;-1.586;2023-07-31T09:26:35;99417.47;;;20.26;100.00
71165;BME280;58859;55.132;-1.586;2023-07-31T09:29:04;99415.50;;;20.05;100.00
71165;BME280;58859;55.132;-1.586;2023-07-31T09:31:39;99429.84;;;20.09;100.00
71165;BME280;58859;55.132;-1.586;2023-07-31T09:34:05;99424.69;;;19.86;100.00
71165;BME280;58859;55.132;-1.586;2023-07-31T09:36:30;99427.97;;;19.93;100.00
71165;BME280;58859;55.132;-1.586;2023-07-31T09:39:02;99422.16;;;20.57;100.00
71165;BME280;58859;55.132;-1.586;2023-07-31T09:41:27;99426.44;;;19.80;100.00
71165;BME280;58859;55.132;-1.586;2023-07-31T09:43:54;99413.28;;;19.97;100.00
71165;BME280;58859;55.132;-1.586;2023-07-31T09:46:20;99409.94;;;20.35;100.00
71165;BME280;58859;55.132;-1.586;2023-07-31T09:48:46;99401.59;;;20.43;100.00
71165;BME280;58859;55.132;-1.586;2023-07-31T09:51:12;99394.59;;;21.40;100.00
71165;BME280;58859;55.132;-1.586;2023-07-31T09:53:37;99392.00;;;21.72;100.00
71165;BME280;58859;55.132;-1.586;2023-07-31T09:56:03;99388.44;;;21.88;100.00
71165;BME280;58859;55.132;-1.586;2023-07-31T09:58:29;99379.34;;;22.11;100.00
71165;BME280;58859;55.132;-1.586;2023-07-31T10:00:59;99386.69;;;22.36;100.00
71165;BME280;58859;55.132;-1.586;2023-07-31T10:03:25;99387.53;;;21.77;100.00
71165;BME280;58859;55.132;-1.586;2023-07-31T10:05:53;99380.25;;;22.68;100.00
71165;BME280;58859;55.132;-1.586;2023-07-31T10:08:23;99380.59;;;22.40;100.00
71165;BME280;58859;55.132;-1.586;2023-07-31T10:10:49;99385.28;;;22.65;100.00
71165;BME280;58859;55.132;-1.586;2023-07-31T10:13:15;99375.78;;;22.79;100.00
71165;BME280;58859;55.132;-1.586;2023-07-31T10:15:41;99372.63;;;22.30;100.00
71165;BME280;58859;55.132;-1.586;2023-07-31T10:18:08;99385.47;;;21.80;100.00
71165;BME280;58859;55.132;-1.586;2023-07-31T10:20:35;99373.41;;;21.62;100.00
71165;BME280;58859;55.132;-1.586;2023-07-31T10:23:01;99376.13;;;22.46;100.00
71165;BME280;58859;55.132;-1.586;2023-07-31T10:25:27;99378.25;;;21.75;100.00
71165;BME280;58859;55.132;-1.586;2023-07-31T10:27:53;99375.88;;;22.05;100.00
71165;BME280;58859;55.132;-1.586;2023-07-31T10:30:22;99370.19;;;22.28;100.00
71165;BME280;58859;55.132;-1.586;2023-07-31T10:32:51;99366.38;;;22.09;100.00
71165;BME280;58859;55.132;-1.586;2023-07-31T10:35:18;99367.78;;;21.58;100.00
71165;BME280;58859;55.132;-1.586;2023-07-31T10:37:44;99370.38;;;21.48;100.00
71165;BME280;58859;55.132;-1.586;2023-07-31T10:40:12;99373.97;;;22.38;100.00
71165;BME280;58859;55.132;-1.586;2023-07-31T10:42:46;99373.97;;;21.96;100.00
71165;BME280;58859;55.132;-1.586;2023-07-31T10:45:13;99373.53;;;22.09;100.00
71165;BME280;58859;55.132;-1.586;2023-07-31T10:47:43;99377.75;;;22.05;100.00
71165;BME280;58859;55.132;-1.586;2023-07-31T10:50:27;99373.09;;;22.22;100.00
71165;BME280;58859;55.132;-1.586;2023-07-31T10:52:57;99368.66;;;22.32;100.00
71165;BME280;58859;55.132;-1.586;2023-07-31T10:55:46;99373.81;;;22.12;100.00
71165;BME280;58859;55.132;-1.586;2023-07-31T10:58:13;99377.84;;;22.20;100.00
71165;BME280;58859;55.132;-1.586;2023-07-31T11:00:41;99380.06;;;22.33;100.00
71165;BME280;58859;55.132;-1.586;2023-07-31T11:03:18;99384.19;;;22.61;100.00
71165;BME280;58859;55.132;-1.586;2023-07-31T11:05:48;99381.13;;;22.84;100.00
71165;BME280;58859;55.132;-1.586;2023-07-31T11:10:44;99377.50;;;22.11;100.00
71165;BME280;58859;55.132;-1.586;2023-07-31T11:13:10;99371.41;;;22.48;100.00
71165;BME280;58859;55.132;-1.586;2023-07-31T11:15:35;99377.44;;;22.43;100.00
71165;BME280;58859;55.132;-1.586;2023-07-31T11:18:01;99375.78;;;21.90;100.00
71165;BME280;58859;55.132;-1.586;2023-07-31T11:20:36;99377.25;;;21.81;100.00
71165;BME280;58859;55.132;-1.586;2023-07-31T11:23:03;99369.84;;;22.10;100.00
71165;BME280;58859;55.132;-1.586;2023-07-31T11:25:30;99368.22;;;22.09;100.00
71165;BME280;58859;55.132;-1.586;2023-07-31T11:27:57;99372.44;;;21.73;100.00
71165;BME280;58859;55.132;-1.586;2023-07-31T11:30:23;99354.97;;;22.09;100.00
71165;BME280;58859;55.132;-1.586;2023-07-31T11:32:49;99362.53;;;21.63;100.00
71165;BME280;58859;55.132;-1.586;2023-07-31T11:35:15;99367.09;;;21.68;100.00
71165;BME280;58859;55.132;-1.586;2023-07-31T11:37:43;99363.19;;;21.49;100.00
71165;BME280;58859;55.132;-1.586;2023-07-31T11:40:10;99360.53;;;22.02;100.00
71165;BME280;58859;55.132;-1.586;2023-07-31T11:42:36;99351.81;;;22.07;100.00
71165;BME280;58859;55.132;-1.586;2023-07-31T11:45:03;99357.56;;;21.99;100.00
71165;BME280;58859;55.132;-1.586;2023-07-31T11:47:29;99352.44;;;22.24;100.00
71165;BME280;58859;55.132;-1.586;2023-07-31T11:49:56;99351.09;;;22.21;100.00
71165;BME280;58859;55.132;-1.586;2023-07-31T11:52:22;99354.88;;;22.30;100.00
71165;BME280;58859;55.132;-1.586;2023-07-31T11:54:49;99353.47;;;22.18;100.00
71165;BME280;58859;55.132;-1.586;2023-07-31T11:57:15;99349.25;;;22.22;100.00
71165;BME280;58859;55.132;-1.586;2023-07-31T11:59:42;99352.53;;;21.39;100.00
71165;BME280;58859;55.132;-1.586;2023-07-31T12:02:08;99358.38;;;21.72;100.00
71165;BME280;58859;55.132;-1.586;2023-07-31T12:04:34;99348.56;;;22.00;100.00
71165;BME280;58859;55.132;-1.586;2023-07-31T12:07:02;99353.47;;;22.23;100.00
71165;BME280;58859;55.132;-1.586;2023-07-31T12:09:28;99358.06;;;21.91;100.00
71165;BME280;58859;55.132;-1.586;2023-07-31T12:11:53;99363.03;;;21.87;100.00
71165;BME280;58859;55.132;-1.586;2023-07-31T12:14:24;99352.78;;;22.38;100.00
71165;BME280;58859;55.132;-1.586;2023-07-31T12:17:00;99356.44;;;22.26;100.00
71165;BME280;58859;55.132;-1.586;2023-07-31T12:19:26;99343.44;;;22.72;100.00
71165;BME280;58859;55.132;-1.586;2023-07-31T12:21:56;99348.09;;;22.55;100.00
71165;BME280;58859;55.132;-1.586;2023-07-31T12:24:22;99347.31;;;22.07;100.00
71165;BME280;58859;55.132;-1.586;2023-07-31T12:26:48;99354.81;;;22.25;100.00
71165;BME280;58859;55.132;-1.586;2023-07-31T12:29:14;99354.81;;;22.25;100.00
71165;BME280;58859;55.132;-1.586;2023-07-31T12:31:43;99355.97;;;22.86;100.00
71165;BME280;58859;55.132;-1.586;2023-07-31T12:34:19;99367.69;;;23.11;100.00
71165;BME280;58859;55.132;-1.586;2023-07-31T12:36:46;99357.00;;;22.90;100.00
71165;BME280;58859;55.132;-1.586;2023-07-31T12:39:14;99353.16;;;23.28;100.00
71165;BME280;58859;55.132;-1.586;2023-07-31T12:41:40;99343.16;;;22.68;100.00
71165;BME280;58859;55.132;-1.586;2023-07-31T12:44:05;99345.81;;;22.26;100.00
71165;BME280;58859;55.132;-1.586;2023-07-31T12:46:31;99343.06;;;22.06;100.00